Terminal Aerodrome Forecast
Issued by NWS

Home | Current Version | Previous Version | Text Only | Print | Product List | Glossary On
Versions: 1 2 3 4 5 6 7 8 9 10 11 12 13 14 15 16 17 18 19 20 21 22 23 24 25 26 27 28 29 30 31 32 33 34 35
000
FTUS42 KGSP 021700
TAFHKY
TAF
KHKY 021737Z 0218/0318 21003KT P6SM FEW060
     FM030800 00000KT 5SM BR SCT090 SCT250
     FM031300 00000KT P6SM BKN090
     FM031700 21006KT P6SM OVC050=

USA.gov is the U.S. government's official web portal to all federal, state and local government web resources and services.